Time;durP1;ratioP1;P1;durP2;ratioP2;P2;SDS_P1;SDS_P2;PMS_P1;PMS_P2;Temp;Humidity;BMP_temperature;BMP_pressure;BME280_temperature;BME280_humidity;BME280_pressure;Samples;Min_cycle;Max_cycle;Signal;HPM_P1;HPM_P2
2023/07/04 00:00:58;;;;;;;5.95;1.95;;;17.20;72.90;;;;;;5052188;28;20035;-62
2023/07/04 00:03:24;;;;;;;6.22;1.70;;;17.20;73.00;;;;;;5067329;28;20242;-62
2023/07/04 00:05:53;;;;;;;6.85;1.98;;;17.10;72.90;;;;;;5068564;28;20461;-62
2023/07/04 00:08:21;;;;;;;7.45;2.15;;;17.10;73.00;;;;;;5069165;28;20123;-62
2023/07/04 00:10:47;;;;;;;6.13;1.90;;;17.10;73.10;;;;;;5069048;28;20044;-62
2023/07/04 00:13:14;;;;;;;5.65;1.58;;;17.10;73.80;;;;;;5067778;28;20155;-62
2023/07/04 00:15:51;;;;;;;9.27;2.05;;;17.10;73.40;;;;;;5069441;28;20119;-62
2023/07/04 00:18:20;;;;;;;6.75;1.67;;;17.20;73.30;;;;;;5069116;28;20082;-62
2023/07/04 00:21:03;;;;;;;7.03;1.70;;;17.20;73.30;;;;;;5069049;28;20036;-62
2023/07/04 00:23:34;;;;;;;6.18;2.08;;;17.20;73.40;;;;;;5051959;28;20032;-63
2023/07/04 00:26:01;;;;;;;6.32;1.90;;;17.20;73.40;;;;;;5064586;28;20115;-62
2023/07/04 00:28:27;;;;;;;5.70;1.60;;;17.20;73.40;;;;;;5066075;28;20105;-63
2023/07/04 00:30:54;;;;;;;6.90;1.90;;;17.20;73.60;;;;;;5068014;28;20032;-63
2023/07/04 00:33:22;;;;;;;4.97;1.90;;;17.20;73.50;;;;;;5069330;28;20074;-62
2023/07/04 00:35:49;;;;;;;5.68;1.70;;;17.20;73.50;;;;;;5066840;28;20090;-63
2023/07/04 00:38:16;;;;;;;7.40;1.70;;;17.20;73.40;;;;;;5068512;28;20129;-62
2023/07/04 00:40:44;;;;;;;4.25;1.98;;;17.20;73.50;;;;;;5051986;28;20035;-62
2023/07/04 00:43:12;;;;;;;4.32;1.50;;;17.10;73.50;;;;;;5047907;28;20522;-62
2023/07/04 00:45:43;;;;;;;4.35;1.52;;;17.10;73.50;;;;;;5068756;28;20024;-62
2023/07/04 00:48:15;;;;;;;15.45;2.25;;;17.10;73.50;;;;;;5050886;28;20128;-62
2023/07/04 00:50:49;;;;;;;4.85;1.67;;;17.10;73.60;;;;;;5044433;28;20044;-62
2023/07/04 00:53:16;;;;;;;5.18;1.63;;;17.00;73.50;;;;;;5050792;28;20094;-62
2023/07/04 00:55:48;;;;;;;5.78;1.75;;;17.00;73.50;;;;;;5066600;28;20024;-62
2023/07/04 00:58:15;;;;;;;5.20;1.70;;;17.00;73.60;;;;;;5068819;28;20060;-62
2023/07/04 01:00:42;;;;;;;6.50;1.80;;;17.00;73.60;;;;;;5051380;28;20040;-62
2023/07/04 01:03:18;;;;;;;8.48;2.13;;;17.00;73.50;;;;;;5050213;28;20354;-62
2023/07/04 01:06:06;;;;;;;3.40;1.40;;;17.00;73.50;;;;;;5067862;28;20358;-63
2023/07/04 01:08:46;;;;;;;4.95;1.80;;;17.00;73.60;;;;;;5048298;28;20044;-62
2023/07/04 01:11:20;;;;;;;5.88;1.52;;;17.00;73.50;;;;;;5068529;28;20028;-62
2023/07/04 01:13:45;;;;;;;7.10;1.75;;;17.00;73.60;;;;;;5051384;28;20028;-62
2023/07/04 01:16:18;;;;;;;8.70;2.42;;;17.00;73.70;;;;;;5068313;28;20038;-62
2023/07/04 01:18:48;;;;;;;6.57;1.90;;;16.90;73.80;;;;;;5067618;28;20044;-62
2023/07/04 01:21:17;;;;;;;6.28;1.90;;;16.90;73.90;;;;;;5067958;28;20421;-62
2023/07/04 01:24:04;;;;;;;9.15;1.98;;;16.90;74.00;;;;;;5068765;28;20129;-62
2023/07/04 01:26:36;;;;;;;11.88;2.40;;;16.90;74.10;;;;;;5066534;28;20695;-62
2023/07/04 01:29:06;;;;;;;8.32;2.00;;;16.90;74.20;;;;;;5066968;28;20032;-62
2023/07/04 01:31:35;;;;;;;6.07;1.63;;;16.90;74.30;;;;;;5049566;28;20031;-62
2023/07/04 01:34:04;;;;;;;7.32;2.20;;;16.90;74.30;;;;;;5068101;28;20430;-62
2023/07/04 01:36:38;;;;;;;5.50;1.90;;;16.90;74.40;;;;;;5050648;28;20667;-62
2023/07/04 01:39:14;;;;;;;7.68;1.77;;;16.90;74.50;;;;;;5046980;28;20428;-62
2023/07/04 01:41:45;;;;;;;9.52;2.05;;;16.90;74.70;;;;;;5066298;28;20020;-62
2023/07/04 01:44:12;;;;;;;7.35;2.50;;;16.90;74.70;;;;;;5065535;28;20075;-62
2023/07/04 01:46:38;;;;;;;5.78;2.17;;;16.90;74.70;;;;;;5066658;28;20017;-63
2023/07/04 01:49:05;;;;;;;7.88;2.22;;;16.90;74.80;;;;;;5067134;28;20122;-62
2023/07/04 01:51:35;;;;;;;7.13;2.05;;;16.90;74.90;;;;;;5050630;28;20500;-62
2023/07/04 01:54:02;;;;;;;7.78;2.45;;;16.90;75.10;;;;;;5048416;28;20024;-62
2023/07/04 01:56:29;;;;;;;8.80;2.45;;;16.90;75.10;;;;;;5067443;28;20174;-62
2023/07/04 01:58:55;;;;;;;7.88;2.05;;;17.00;75.20;;;;;;5045449;28;20047;-62
2023/07/04 02:01:22;;;;;;;8.00;2.35;;;17.00;75.20;;;;;;5046292;28;20044;-62
2023/07/04 02:03:48;;;;;;;9.73;2.50;;;17.00;75.20;;;;;;5045933;28;20029;-63
2023/07/04 02:06:15;;;;;;;5.65;1.98;;;17.00;75.30;;;;;;5044535;28;20021;-63
2023/07/04 02:08:41;;;;;;;8.77;2.90;;;17.00;75.40;;;;;;5047460;28;20032;-62
2023/07/04 02:11:08;;;;;;;8.82;2.40;;;17.00;75.40;;;;;;5047412;28;21132;-62
2023/07/04 02:13:34;;;;;;;9.07;2.45;;;17.00;75.50;;;;;;5044989;28;20033;-62
2023/07/04 02:15:59;;;;;;;8.30;2.80;;;17.00;75.50;;;;;;5045474;28;20421;-62
2023/07/04 02:18:26;;;;;;;7.90;2.50;;;17.00;75.60;;;;;;5046994;28;20033;-62
2023/07/04 02:20:52;;;;;;;8.20;2.58;;;17.00;75.70;;;;;;5048835;28;20024;-63
2023/07/04 02:23:18;;;;;;;8.13;2.67;;;17.00;75.80;;;;;;5047135;28;20025;-63
2023/07/04 02:25:44;;;;;;;9.38;2.65;;;17.00;75.80;;;;;;5045482;28;20037;-62
2023/07/04 02:28:10;;;;;;;10.15;2.90;;;17.00;75.80;;;;;;5046469;28;20036;-63
2023/07/04 02:30:37;;;;;;;7.90;2.65;;;17.00;75.80;;;;;;5046077;28;20029;-62
2023/07/04 02:33:03;;;;;;;7.80;2.50;;;17.00;75.80;;;;;;5047670;28;20040;-63
2023/07/04 02:35:29;;;;;;;9.57;2.60;;;17.00;75.70;;;;;;5045629;28;20036;-62
2023/07/04 02:37:56;;;;;;;6.13;2.38;;;17.00;75.60;;;;;;5043294;28;20033;-62
2023/07/04 02:40:23;;;;;;;8.25;2.70;;;17.00;76.30;;;;;;5047004;28;20048;-62
2023/07/04 02:42:49;;;;;;;8.13;2.50;;;17.00;75.60;;;;;;5046227;28;20086;-62
2023/07/04 02:45:15;;;;;;;8.07;2.65;;;17.00;75.60;;;;;;5046642;28;20017;-62
2023/07/04 02:47:41;;;;;;;7.95;2.30;;;17.00;75.60;;;;;;5042896;28;20044;-62
2023/07/04 02:50:12;;;;;;;6.47;2.10;;;17.00;75.60;;;;;;5045696;28;20311;-62
2023/07/04 02:52:39;;;;;;;8.85;2.60;;;16.90;75.50;;;;;;5045741;28;20350;-62
2023/07/04 02:55:05;;;;;;;9.32;2.50;;;16.90;75.50;;;;;;5062076;28;20049;-62
2023/07/04 02:57:31;;;;;;;7.68;2.60;;;16.90;75.50;;;;;;5044220;28;20179;-62
2023/07/04 02:59:59;;;;;;;7.50;2.47;;;16.90;75.50;;;;;;5030030;28;20143;-62
2023/07/04 03:02:25;;;;;;;10.38;2.92;;;16.90;75.50;;;;;;5045245;28;20025;-62
2023/07/04 03:04:54;;;;;;;8.98;2.50;;;16.80;75.50;;;;;;5047361;28;20029;-63
2023/07/04 03:07:24;;;;;;;10.38;2.53;;;16.80;75.50;;;;;;5045458;28;20510;-62
2023/07/04 03:09:51;;;;;;;7.30;2.40;;;16.80;75.50;;;;;;5045101;28;20029;-62
2023/07/04 03:12:20;;;;;;;8.18;2.70;;;16.80;75.40;;;;;;5050487;28;20021;-62
2023/07/04 03:14:46;;;;;;;9.32;2.90;;;16.80;75.40;;;;;;5050816;28;20453;-62
2023/07/04 03:17:12;;;;;;;7.72;2.42;;;16.80;75.40;;;;;;5049472;28;20087;-62
2023/07/04 03:19:38;;;;;;;10.32;2.38;;;16.80;75.40;;;;;;5048359;28;20037;-62
2023/07/04 03:22:04;;;;;;;8.73;2.28;;;16.70;75.40;;;;;;5050371;28;20391;-62
2023/07/04 03:24:30;;;;;;;8.13;2.67;;;16.70;75.40;;;;;;5049064;28;20029;-62
2023/07/04 03:26:57;;;;;;;8.73;2.38;;;16.70;75.40;;;;;;5049638;28;20028;-62
2023/07/04 03:29:23;;;;;;;6.05;2.30;;;16.70;75.40;;;;;;5030548;28;20037;-62
2023/07/04 03:31:51;;;;;;;8.68;2.40;;;16.70;75.50;;;;;;5049185;28;20171;-62
2023/07/04 03:34:17;;;;;;;8.23;2.50;;;16.70;75.50;;;;;;5034243;28;20032;-62
2023/07/04 03:36:43;;;;;;;8.00;2.50;;;16.60;75.50;;;;;;5050106;28;20025;-62
2023/07/04 03:39:09;;;;;;;5.28;1.92;;;16.60;75.50;;;;;;5049663;28;20045;-62
2023/07/04 03:41:35;;;;;;;7.85;2.50;;;16.60;75.50;;;;;;5050559;28;20037;-62
2023/07/04 03:44:01;;;;;;;6.53;2.17;;;16.60;75.50;;;;;;5065372;28;20032;-62
2023/07/04 03:46:27;;;;;;;7.60;2.42;;;16.60;75.50;;;;;;5049690;28;20358;-62
2023/07/04 03:48:53;;;;;;;7.72;2.25;;;16.60;75.50;;;;;;5030466;28;20032;-62
2023/07/04 03:51:19;;;;;;;8.23;2.28;;;16.60;75.40;;;;;;5049231;28;20110;-62
2023/07/04 03:53:45;;;;;;;6.70;1.98;;;16.50;75.40;;;;;;5033310;28;20040;-62
2023/07/04 03:56:12;;;;;;;6.75;2.17;;;16.60;75.50;;;;;;5044719;28;20115;-62
2023/07/04 03:58:38;;;;;;;7.35;1.90;;;16.60;75.40;;;;;;5052479;28;20032;-62
2023/07/04 04:01:06;;;;;;;6.70;2.03;;;16.60;75.40;;;;;;5070755;28;20031;-62
2023/07/04 04:03:37;;;;;;;7.47;2.42;;;16.60;75.40;;;;;;5036815;28;20325;-62
2023/07/04 04:06:08;;;;;;;8.25;2.55;;;16.50;75.40;;;;;;5071102;28;20021;-62
2023/07/04 04:08:34;;;;;;;8.63;2.50;;;16.60;75.50;;;;;;5052778;28;20024;-62
2023/07/04 04:11:01;;;;;;;7.00;1.95;;;16.60;75.50;;;;;;5067678;28;20039;-62
2023/07/04 04:13:27;;;;;;;6.18;2.10;;;16.60;75.50;;;;;;5070253;28;20100;-62
2023/07/04 04:15:53;;;;;;;7.30;2.25;;;16.60;75.50;;;;;;5069979;28;20430;-62
2023/07/04 04:18:19;;;;;;;7.50;2.40;;;16.60;75.50;;;;;;5050368;28;20119;-62
2023/07/04 04:20:45;;;;;;;6.68;2.38;;;16.60;75.60;;;;;;5034545;28;20192;-62
2023/07/04 04:23:12;;;;;;;7.75;2.40;;;16.60;75.60;;;;;;5068638;28;20056;-62
2023/07/04 04:25:38;;;;;;;7.65;2.85;;;16.70;75.50;;;;;;5068811;28;20106;-62
2023/07/04 04:28:08;;;;;;;6.60;2.47;;;16.60;75.50;;;;;;5069076;28;20024;-63
2023/07/04 04:30:35;;;;;;;8.20;2.55;;;16.70;75.70;;;;;;5052590;28;20029;-62
2023/07/04 04:33:02;;;;;;;6.05;2.38;;;16.60;75.70;;;;;;5069302;28;21699;-62
2023/07/04 04:35:32;;;;;;;7.45;2.65;;;16.70;75.70;;;;;;5035235;28;20063;-62
2023/07/04 04:37:58;;;;;;;7.45;2.50;;;16.70;75.80;;;;;;5051710;28;20110;-63
2023/07/04 04:40:24;;;;;;;7.93;2.58;;;16.70;75.90;;;;;;5053319;28;20028;-62
2023/07/04 04:42:53;;;;;;;9.07;2.85;;;16.70;75.90;;;;;;5069239;28;20028;-62
2023/07/04 04:45:23;;;;;;;6.97;2.75;;;16.70;75.90;;;;;;5066221;28;20029;-62
2023/07/04 04:47:53;;;;;;;8.73;2.80;;;16.80;76.00;;;;;;5068226;28;20082;-62
2023/07/04 04:50:32;;;;;;;9.23;3.10;;;16.80;76.00;;;;;;5068573;28;20293;-62
2023/07/04 04:52:59;;;;;;;10.30;2.47;;;16.80;76.00;;;;;;5066352;28;20341;-63
2023/07/04 04:55:25;;;;;;;8.88;2.90;;;16.80;76.00;;;;;;5049991;28;20071;-62
2023/07/04 04:57:52;;;;;;;9.55;3.33;;;16.90;76.10;;;;;;5068693;28;20035;-62
2023/07/04 05:00:19;;;;;;;10.35;3.25;;;17.00;76.10;;;;;;5066228;28;20028;-62
2023/07/04 05:02:45;;;;;;;10.60;3.55;;;17.00;76.10;;;;;;5067579;28;20353;-62
2023/07/04 05:05:12;;;;;;;10.93;3.90;;;17.10;76.10;;;;;;5068058;28;20125;-63
2023/07/04 05:07:38;;;;;;;12.10;4.03;;;17.10;76.10;;;;;;5050604;28;20135;-64
2023/07/04 05:10:04;;;;;;;12.80;3.78;;;17.10;76.20;;;;;;5048961;28;20111;-62
2023/07/04 05:12:30;;;;;;;9.63;3.42;;;17.10;76.20;;;;;;5071397;28;20033;-63
2023/07/04 05:14:56;;;;;;;14.10;4.07;;;17.10;76.30;;;;;;5074163;28;20016;-62
2023/07/04 05:17:23;;;;;;;10.77;3.53;;;17.20;76.30;;;;;;5074307;28;20028;-63
2023/07/04 05:19:50;;;;;;;10.73;3.67;;;17.20;76.40;;;;;;5072694;28;20033;-62
2023/07/04 05:22:17;;;;;;;9.57;3.58;;;17.10;76.30;;;;;;5074554;28;20020;-62
2023/07/04 05:24:42;;;;;;;13.13;4.90;;;17.20;76.40;;;;;;5039656;28;20052;-62
2023/07/04 05:27:08;;;;;;;14.40;4.60;;;17.20;76.40;;;;;;5074181;28;20036;-62
2023/07/04 05:29:34;;;;;;;9.35;4.45;;;17.20;76.50;;;;;;5073546;28;20441;-62
2023/07/04 05:31:59;;;;;;;11.40;4.00;;;17.30;76.50;;;;;;5072708;28;20056;-63
2023/07/04 05:34:26;;;;;;;14.65;4.75;;;17.30;76.40;;;;;;5073778;28;20029;-62
2023/07/04 05:36:51;;;;;;;15.40;4.82;;;17.30;76.40;;;;;;5056389;28;20361;-63
2023/07/04 05:39:17;;;;;;;17.25;4.65;;;17.30;76.40;;;;;;5056516;28;20039;-62
2023/07/04 05:41:43;;;;;;;10.25;4.35;;;17.40;76.50;;;;;;5073063;28;20024;-62
2023/07/04 05:44:10;;;;;;;14.32;4.82;;;17.40;76.50;;;;;;5074330;28;20032;-63
2023/07/04 05:46:36;;;;;;;15.20;4.95;;;17.40;76.40;;;;;;5051516;28;20020;-63
2023/07/04 05:49:04;;;;;;;12.15;4.30;;;17.40;76.30;;;;;;5063332;28;20051;-62
2023/07/04 05:51:30;;;;;;;13.32;4.63;;;17.50;76.40;;;;;;5072522;28;20080;-63
2023/07/04 05:53:57;;;;;;;13.68;4.82;;;17.50;76.30;;;;;;5056154;28;20095;-63
2023/07/04 05:56:24;;;;;;;13.10;4.18;;;17.50;76.20;;;;;;5049514;28;20166;-62
2023/07/04 05:58:53;;;;;;;13.18;4.85;;;17.60;76.30;;;;;;5066971;28;20032;-62
2023/07/04 06:01:33;;;;;;;12.00;4.63;;;17.70;76.30;;;;;;5048142;28;20043;-63
2023/07/04 06:04:00;;;;;;;13.93;4.82;;;17.70;76.20;;;;;;5065496;28;20108;-62
2023/07/04 06:06:29;;;;;;;13.30;4.60;;;17.70;76.10;;;;;;5048948;28;20472;-63
2023/07/04 06:08:56;;;;;;;15.35;5.18;;;17.80;76.20;;;;;;5066091;28;20121;-63
2023/07/04 06:11:26;;;;;;;12.25;4.85;;;17.80;76.10;;;;;;5067178;28;20052;-63
2023/07/04 06:13:51;;;;;;;12.45;4.45;;;18.00;76.10;;;;;;5049708;28;20339;-62
2023/07/04 06:16:18;;;;;;;17.50;5.22;;;18.10;75.80;;;;;;5067661;28;20027;-63
2023/07/04 06:18:43;;;;;;;13.85;5.20;;;18.20;75.50;;;;;;5067395;28;20118;-63
2023/07/04 06:21:09;;;;;;;13.57;4.70;;;18.30;75.30;;;;;;5067105;28;20400;-63
2023/07/04 06:23:35;;;;;;;14.80;4.95;;;18.40;75.20;;;;;;5066670;28;20099;-63
2023/07/04 06:26:01;;;;;;;12.60;4.63;;;18.50;75.20;;;;;;5049796;28;20025;-63
2023/07/04 06:28:27;;;;;;;15.60;5.30;;;18.60;75.00;;;;;;5050325;28;20037;-63
2023/07/04 06:30:52;;;;;;;13.48;4.70;;;18.80;75.00;;;;;;5066764;28;20039;-63
2023/07/04 06:33:18;;;;;;;12.55;4.60;;;18.80;74.70;;;;;;5065488;28;20033;-63
2023/07/04 06:35:44;;;;;;;16.83;5.38;;;19.00;74.50;;;;;;5035546;28;20032;-63
2023/07/04 06:38:10;;;;;;;13.02;4.88;;;19.10;74.20;;;;;;5066846;28;20033;-63
2023/07/04 06:40:36;;;;;;;14.02;4.88;;;19.10;73.90;;;;;;5068107;28;20021;-63
2023/07/04 06:43:03;;;;;;;11.02;4.55;;;19.20;73.70;;;;;;5064430;28;20364;-63
2023/07/04 06:45:31;;;;;;;11.95;5.05;;;19.20;73.50;;;;;;5069726;28;20078;-63
2023/07/04 06:47:57;;;;;;;14.07;4.50;;;19.20;73.50;;;;;;5073791;28;20026;-63
2023/07/04 06:50:23;;;;;;;14.68;4.30;;;19.20;73.50;;;;;;5059653;28;20047;-63
2023/07/04 06:52:48;;;;;;;12.77;4.30;;;19.20;73.40;;;;;;5076590;28;20043;-65
2023/07/04 06:55:14;;;;;;;14.40;4.40;;;19.20;73.30;;;;;;5058367;28;20025;-63
2023/07/04 06:57:40;;;;;;;16.05;5.55;;;19.20;73.40;;;;;;5077042;28;20044;-63
2023/07/04 07:00:06;;;;;;;16.08;4.80;;;19.10;73.30;;;;;;5076761;28;20048;-63
2023/07/04 07:02:32;;;;;;;11.82;4.20;;;19.10;73.50;;;;;;5076782;28;20108;-63
2023/07/04 07:04:58;;;;;;;12.45;4.25;;;19.00;73.60;;;;;;5057770;28;20115;-64
2023/07/04 07:07:25;;;;;;;13.20;4.82;;;18.90;73.70;;;;;;5077184;28;20050;-63
2023/07/04 07:09:50;;;;;;;13.70;4.82;;;18.90;73.60;;;;;;5075843;28;20055;-63
2023/07/04 07:12:16;;;;;;;11.02;4.43;;;18.90;73.60;;;;;;5076804;28;20413;-64
2023/07/04 07:14:42;;;;;;;11.52;4.32;;;19.00;73.40;;;;;;5076618;28;20033;-64
2023/07/04 07:17:08;;;;;;;14.82;5.10;;;19.10;73.10;;;;;;5076718;28;20031;-63
2023/07/04 07:19:34;;;;;;;14.52;4.32;;;19.10;73.00;;;;;;5076426;28;20366;-64
2023/07/04 07:22:01;;;;;;;12.10;4.25;;;19.50;72.80;;;;;;5057028;28;20028;-64
2023/07/04 07:24:30;;;;;;;14.75;4.07;;;19.80;72.20;;;;;;5076448;28;20031;-63
2023/07/04 07:26:56;;;;;;;12.65;4.10;;;20.00;71.40;;;;;;5076393;28;20027;-64
2023/07/04 07:29:22;;;;;;;13.85;4.75;;;20.20;70.70;;;;;;5055921;28;20032;-64
2023/07/04 07:31:50;;;;;;;11.57;4.05;;;20.20;70.40;;;;;;5055130;28;20028;-64
2023/07/04 07:34:17;;;;;;;14.18;4.40;;;20.20;70.40;;;;;;5055900;28;20132;-63
2023/07/04 07:36:44;;;;;;;11.73;3.72;;;20.10;70.40;;;;;;5071975;28;20039;-63
2023/07/04 07:39:16;;;;;;;12.50;3.70;;;20.00;70.30;;;;;;5069990;28;20119;-64
2023/07/04 07:41:43;;;;;;;;;;;19.90;70.50;;;;;;5067670;28;20035;-64
2023/07/04 07:44:09;;;;;;;11.15;3.50;;;19.70;70.90;;;;;;5069947;28;19916;-64
2023/07/04 07:46:35;;;;;;;12.77;4.13;;;19.60;70.80;;;;;;5071348;28;20091;-64
2023/07/04 07:49:01;;;;;;;11.60;3.53;;;19.50;70.80;;;;;;5053546;28;20030;-64
2023/07/04 07:51:27;;;;;;;10.45;3.65;;;19.50;70.50;;;;;;5068988;28;20036;-64
2023/07/04 07:53:55;;;;;;;10.20;3.50;;;19.70;70.00;;;;;;5053185;28;20056;-63
2023/07/04 07:56:23;;;;;;;9.63;3.65;;;19.80;69.50;;;;;;5070304;28;20029;-64
2023/07/04 07:58:48;;;;;;;14.95;3.70;;;19.90;69.10;;;;;;5067682;28;20028;-64
2023/07/04 08:01:23;;;;;;;13.50;3.40;;;19.90;69.00;;;;;;5053847;28;20409;-63
2023/07/04 08:03:49;;;;;;;12.32;3.05;;;20.00;68.70;;;;;;5051792;28;20118;-66
2023/07/04 08:06:29;;;;;;;7.65;2.63;;;20.00;68.50;;;;;;5071496;28;20029;-64
2023/07/04 08:08:57;;;;;;;11.23;3.45;;;20.00;68.10;;;;;;5074683;28;20049;-64
2023/07/04 08:11:24;;;;;;;12.10;3.58;;;19.80;68.10;;;;;;5075544;28;20039;-64
2023/07/04 08:13:51;;;;;;;9.88;2.92;;;19.80;68.20;;;;;;5053690;28;20540;-64
2023/07/04 08:16:24;;;;;;;10.07;3.00;;;19.70;68.10;;;;;;5055841;28;20024;-64
2023/07/04 08:18:51;;;;;;;9.88;3.05;;;19.70;68.10;;;;;;5073561;28;20037;-64
2023/07/04 08:21:18;;;;;;;11.10;3.28;;;19.60;68.20;;;;;;5056396;28;20043;-64
2023/07/04 08:23:43;;;;;;;10.82;3.22;;;19.60;68.10;;;;;;5055116;28;20043;-64
2023/07/04 08:26:23;;;;;;;9.82;2.88;;;19.60;67.80;;;;;;5052483;28;20024;-64
2023/07/04 08:28:53;;;;;;;9.23;2.67;;;19.60;67.40;;;;;;5049789;28;20034;-64
2023/07/04 08:31:20;;;;;;;8.45;2.72;;;19.50;67.30;;;;;;5060673;28;20464;-64
2023/07/04 08:33:46;;;;;;;11.07;3.25;;;19.60;67.30;;;;;;5071427;28;20526;-64
2023/07/04 08:36:14;;;;;;;10.77;2.97;;;19.70;67.10;;;;;;5073474;28;20040;-64
2023/07/04 08:38:41;;;;;;;7.80;2.80;;;19.70;66.80;;;;;;5057339;28;20043;-64
2023/07/04 08:41:39;;;;;;;12.55;3.83;;;19.70;66.80;;;;;;5073965;28;20048;-64
2023/07/04 08:44:14;;;;;;;9.52;2.90;;;19.70;66.70;;;;;;5052340;28;20029;-65
2023/07/04 08:46:43;;;;;;;9.23;2.65;;;19.70;66.20;;;;;;5054317;28;20028;-64
2023/07/04 08:49:23;;;;;;;11.65;2.83;;;19.70;66.00;;;;;;5056863;28;20033;-64
2023/07/04 08:52:02;;;;;;;10.00;2.83;;;19.70;65.80;;;;;;5072291;28;20440;-64
2023/07/04 08:54:28;;;;;;;7.72;2.72;;;19.70;65.50;;;;;;5072885;28;20020;-63
2023/07/04 08:56:59;;;;;;;8.00;2.58;;;19.80;65.10;;;;;;5072665;28;20040;-63
2023/07/04 08:59:38;;;;;;;9.30;2.75;;;19.90;64.90;;;;;;5051656;28;20363;-63
2023/07/04 09:02:18;;;;;;;8.98;3.05;;;19.90;64.40;;;;;;5055318;28;20029;-63
2023/07/04 09:05:25;;;;;;;9.68;2.83;;;20.00;64.30;;;;;;5053168;28;20134;-63
2023/07/04 09:08:08;;;;;;;7.82;2.55;;;20.10;64.20;;;;;;4999003;28;20045;-63
2023/07/04 09:10:41;;;;;;;8.20;2.42;;;20.10;63.80;;;;;;5054089;28;20021;-63
2023/07/04 09:13:12;;;;;;;6.60;2.42;;;20.20;63.30;;;;;;5052591;28;20037;-63
2023/07/04 09:15:43;;;;;;;10.48;2.85;;;20.40;62.70;;;;;;5053050;28;20395;-64
2023/07/04 09:18:08;;;;;;;7.78;2.33;;;20.70;62.20;;;;;;5054461;28;20029;-63
2023/07/04 09:20:45;;;;;;;7.35;2.35;;;20.90;61.70;;;;;;5052329;28;20021;-63
2023/07/04 09:23:17;;;;;;;8.20;2.40;;;21.10;60.90;;;;;;5053643;28;20362;-65
2023/07/04 09:25:43;;;;;;;7.43;2.72;;;21.20;60.70;;;;;;5051140;28;20053;-63
2023/07/04 09:28:09;;;;;;;7.63;2.67;;;21.30;60.30;;;;;;5053041;28;20477;-63
2023/07/04 09:30:35;;;;;;;7.75;2.38;;;21.60;59.80;;;;;;5053706;28;20021;-63
2023/07/04 09:33:02;;;;;;;10.02;2.60;;;22.00;59.20;;;;;;5051115;28;20037;-63
2023/07/04 09:35:29;;;;;;;8.73;2.55;;;22.30;58.60;;;;;;5052593;28;20457;-63
2023/07/04 09:37:59;;;;;;;6.53;2.00;;;22.60;58.00;;;;;;5049341;28;20200;-63
2023/07/04 09:40:44;;;;;;;8.23;1.90;;;22.60;57.10;;;;;;5045993;28;20362;-63
2023/07/04 09:43:12;;;;;;;7.90;1.95;;;22.50;57.30;;;;;;5045673;28;20033;-63
2023/07/04 09:45:38;;;;;;;6.40;2.03;;;22.50;57.40;;;;;;5053312;28;20025;-63
2023/07/04 09:48:07;;;;;;;10.20;2.63;;;22.50;57.20;;;;;;5053729;28;20098;-63
2023/07/04 09:50:36;;;;;;;7.30;2.47;;;22.40;57.10;;;;;;5052298;28;20035;-63
2023/07/04 09:53:16;;;;;;;7.25;2.40;;;22.30;57.10;;;;;;5052758;28;20029;-63
2023/07/04 09:55:56;;;;;;;7.72;2.03;;;22.20;57.10;;;;;;5052922;28;20148;-63
2023/07/04 09:58:23;;;;;;;8.27;2.08;;;22.10;57.20;;;;;;5053711;28;20391;-63
2023/07/04 10:01:15;;;;;;;7.93;2.67;;;22.20;57.00;;;;;;5048414;28;20090;-63
2023/07/04 10:03:42;;;;;;;9.00;2.15;;;22.20;56.40;;;;;;5050439;28;20342;-63
2023/07/04 10:06:09;;;;;;;6.60;2.08;;;22.20;56.30;;;;;;5051973;28;20028;-63
2023/07/04 10:08:53;;;;;;;9.73;2.35;;;22.30;56.00;;;;;;5051119;28;20120;-63
2023/07/04 10:11:35;;;;;;;10.00;2.30;;;22.60;55.70;;;;;;5067264;28;20625;-63
2023/07/04 10:14:08;;;;;;;5.82;1.90;;;22.80;55.10;;;;;;5052276;28;20025;-63
2023/07/04 10:16:35;;;;;;;7.18;2.03;;;22.80;54.80;;;;;;5051255;28;20081;-64
2023/07/04 10:19:09;;;;;;;7.13;2.35;;;23.00;54.40;;;;;;5053902;28;20071;-63
2023/07/04 10:21:45;;;;;;;6.70;2.47;;;23.10;53.40;;;;;;5054150;28;20025;-64
2023/07/04 10:24:17;;;;;;;5.65;2.00;;;23.40;52.90;;;;;;5056120;28;20029;-64
2023/07/04 10:26:46;;;;;;;6.25;1.77;;;23.50;52.50;;;;;;5055741;28;20040;-64
2023/07/04 10:29:13;;;;;;;7.57;2.05;;;23.40;52.10;;;;;;5055936;28;20348;-65
2023/07/04 10:31:40;;;;;;;6.50;2.00;;;23.10;52.10;;;;;;5056686;28;20064;-64
2023/07/04 10:34:07;;;;;;;8.00;2.20;;;22.90;52.60;;;;;;5072628;28;20063;-65
2023/07/04 10:36:36;;;;;;;10.02;2.15;;;22.70;53.00;;;;;;5055598;28;20043;-65
2023/07/04 10:39:10;;;;;;;6.43;2.22;;;22.60;53.10;;;;;;5056594;28;20028;-63
2023/07/04 10:41:54;;;;;;;5.43;2.10;;;22.50;53.30;;;;;;5057459;28;20021;-64
2023/07/04 10:44:23;;;;;;;8.55;1.90;;;22.40;52.90;;;;;;5056786;28;20029;-65
2023/07/04 10:47:02;;;;;;;6.15;2.00;;;22.50;53.10;;;;;;5071254;28;20056;-64
2023/07/04 10:49:35;;;;;;;8.73;2.30;;;22.80;52.30;;;;;;5056839;28;20025;-64
2023/07/04 10:52:11;;;;;;;8.27;2.03;;;23.10;51.70;;;;;;5057804;28;20036;-64
2023/07/04 10:54:37;;;;;;;10.18;2.35;;;23.30;51.20;;;;;;5056462;28;20052;-65
2023/07/04 10:57:11;;;;;;;6.47;2.50;;;23.40;50.80;;;;;;5055544;28;20957;-64
2023/07/04 10:59:41;;;;;;;8.00;2.15;;;23.60;50.30;;;;;;5054171;28;20040;-64
2023/07/04 11:02:29;;;;;;;7.47;2.08;;;23.60;50.10;;;;;;5056987;28;20052;-64
2023/07/04 11:05:00;;;;;;;7.72;2.28;;;23.50;49.90;;;;;;5055896;28;20056;-65
2023/07/04 11:07:27;;;;;;;7.68;2.28;;;23.40;49.80;;;;;;5054909;28;20406;-65
2023/07/04 11:09:55;;;;;;;8.18;2.50;;;23.50;50.00;;;;;;5055265;28;20041;-65
2023/07/04 11:12:27;;;;;;;10.13;2.47;;;23.60;49.90;;;;;;5056673;28;20025;-64
2023/07/04 11:15:03;;;;;;;6.63;1.92;;;23.90;49.60;;;;;;5049319;28;20029;-66
2023/07/04 11:17:33;;;;;;;9.25;2.03;;;23.90;49.20;;;;;;5047651;28;20041;-64
2023/07/04 11:20:10;;;;;;;10.95;2.40;;;23.80;49.20;;;;;;5047150;28;20048;-68
2023/07/04 11:22:57;;;;;;;5.97;2.00;;;23.60;49.30;;;;;;5050026;28;20033;-67
2023/07/04 11:25:31;;;;;;;7.18;1.83;;;23.40;49.90;;;;;;5055370;28;20029;-67
2023/07/04 11:28:18;;;;;;;5.32;1.80;;;23.30;50.10;;;;;;5054395;28;20089;-69
2023/07/04 11:30:49;;;;;;;4.45;1.60;;;23.30;50.80;;;;;;5054102;28;20025;-66
2023/07/04 11:33:47;;;;;;;;;;;23.50;49.80;;;;;;5053938;28;20108;-68
2023/07/04 11:36:24;;;;;;;9.75;1.98;;;23.70;49.40;;;;;;5010480;28;20319;-66
2023/07/04 11:38:52;;;;;;;8.02;1.88;;;23.70;48.70;;;;;;5053433;28;20058;-67
2023/07/04 11:41:38;;;;;;;7.95;2.08;;;23.80;48.50;;;;;;5070831;28;20045;-65
2023/07/04 11:44:16;;;;;;;7.50;2.35;;;23.90;48.40;;;;;;5071428;28;20021;-64
2023/07/04 11:46:42;;;;;;;6.07;1.95;;;23.80;48.50;;;;;;5054238;28;20112;-65
2023/07/04 11:49:19;;;;;;;4.18;1.50;;;23.90;48.50;;;;;;5054284;28;20029;-66
2023/07/04 11:51:45;;;;;;;5.60;1.98;;;23.80;48.30;;;;;;5052513;28;20182;-67
2023/07/04 11:54:12;;;;;;;5.68;1.73;;;23.80;48.60;;;;;;5054295;28;20043;-68
2023/07/04 11:56:42;;;;;;;6.28;2.17;;;23.70;48.50;;;;;;5054690;28;20442;-67
2023/07/04 11:59:13;;;;;;;5.90;1.90;;;23.60;48.60;;;;;;5058666;28;20033;-67
2023/07/04 12:01:51;;;;;;;6.07;1.88;;;23.50;48.70;;;;;;5048784;28;20132;-65
2023/07/04 12:04:23;;;;;;;8.07;2.05;;;23.40;48.70;;;;;;5075918;28;20037;-66
2023/07/04 12:06:56;;;;;;;5.22;1.70;;;23.40;48.70;;;;;;5058322;28;20060;-65
2023/07/04 12:09:29;;;;;;;7.20;2.05;;;23.30;48.60;;;;;;5057365;28;20035;-65
2023/07/04 12:11:57;;;;;;;8.20;2.13;;;23.40;48.90;;;;;;5073957;28;20035;-66
2023/07/04 12:14:24;;;;;;;8.27;1.98;;;23.30;48.80;;;;;;5057333;28;20446;-67
2023/07/04 12:16:50;;;;;;;4.35;1.85;;;23.30;48.70;;;;;;5075357;28;20036;-66
2023/07/04 12:19:18;;;;;;;6.00;2.00;;;23.40;48.60;;;;;;5056913;28;20037;-66
2023/07/04 12:21:46;;;;;;;5.47;1.67;;;23.50;48.60;;;;;;5072973;28;20028;-66
2023/07/04 12:24:18;;;;;;;6.20;1.98;;;23.60;48.50;;;;;;5058106;28;20107;-66
2023/07/04 12:26:51;;;;;;;7.13;2.20;;;23.70;48.40;;;;;;5057788;28;20032;-66
2023/07/04 12:29:16;;;;;;;7.28;2.03;;;23.60;48.20;;;;;;5075363;28;20040;-66
2023/07/04 12:31:42;;;;;;;4.95;1.60;;;23.50;48.10;;;;;;5035777;28;20028;-66
2023/07/04 12:34:08;;;;;;;9.77;2.33;;;23.40;48.10;;;;;;5055341;28;20107;-65
2023/07/04 12:36:37;;;;;;;6.07;2.05;;;23.30;48.20;;;;;;5054119;28;20533;-65
2023/07/04 12:39:06;;;;;;;5.07;2.03;;;23.30;48.40;;;;;;5067739;28;20024;-67
2023/07/04 12:41:33;;;;;;;6.68;2.40;;;23.20;48.50;;;;;;5048967;28;20455;-65
2023/07/04 12:44:02;;;;;;;8.70;2.53;;;23.10;48.50;;;;;;5047320;28;20025;-66
2023/07/04 12:46:30;;;;;;;5.95;1.77;;;23.00;48.70;;;;;;5066520;28;20024;-65
2023/07/04 12:48:58;;;;;;;6.53;2.03;;;23.10;48.70;;;;;;5064300;28;20032;-64
2023/07/04 12:51:29;;;;;;;5.35;1.80;;;23.20;48.80;;;;;;5071647;28;20446;-65
2023/07/04 12:53:58;;;;;;;5.38;1.88;;;23.30;48.60;;;;;;5056422;28;20083;-65